Time;durP1;ratioP1;P1;durP2;ratioP2;P2;SDS_P1;SDS_P2;PMS_P1;PMS_P2;Temp;Humidity;BMP_temperature;BMP_pressure;BME280_temperature;BME280_humidity;BME280_pressure;Samples;Min_cycle;Max_cycle;Signal;HPM_P1;HPM_P2
2021/06/14 00:00:58;;;;;;;3.55;2.00;;;13.20;70.50;;;;;;5027655;28;20017;-66
2021/06/14 00:03:25;;;;;;;6.82;3.13;;;13.30;69.10;;;;;;5026979;28;20065;-67
2021/06/14 00:05:52;;;;;;;6.97;2.90;;;13.40;70.80;;;;;;5027545;28;20065;-73
2021/06/14 00:08:22;;;;;;;10.38;3.63;;;13.60;71.30;;;;;;5027373;28;20175;-65
2021/06/14 00:10:51;;;;;;;6.72;2.85;;;13.70;70.40;;;;;;5026964;28;20080;-72
2021/06/14 00:13:19;;;;;;;8.35;3.38;;;13.70;69.20;;;;;;5027051;28;20021;-68
2021/06/14 00:15:47;;;;;;;9.20;2.88;;;13.80;70.40;;;;;;5026645;28;20029;-68
2021/06/14 00:18:15;;;;;;;7.85;3.90;;;13.90;70.40;;;;;;5025172;28;20164;-65
2021/06/14 00:20:48;;;;;;;8.23;3.35;;;14.10;70.30;;;;;;5027164;28;20132;-72
2021/06/14 00:23:14;;;;;;;;;;;14.30;68.90;;;;;;5027050;28;20034;-71
2021/06/14 00:25:41;;;;;;;5.00;2.85;;;14.30;68.40;;;;;;5026338;28;19920;-66
2021/06/14 00:28:09;;;;;;;4.03;2.40;;;14.40;69.30;;;;;;5027387;28;20029;-69
2021/06/14 00:30:40;;;;;;;5.72;3.25;;;14.60;68.60;;;;;;5025326;28;20766;-66
2021/06/14 00:33:08;;;;;;;3.65;2.70;;;14.80;67.80;;;;;;5026795;28;20025;-72
2021/06/14 00:35:35;;;;;;;3.10;2.45;;;15.00;67.70;;;;;;5024271;28;20021;-68
2021/06/14 00:38:02;;;;;;;2.55;2.13;;;15.10;67.20;;;;;;5026687;28;20096;-65
2021/06/14 00:40:30;;;;;;;6.03;2.30;;;15.20;66.60;;;;;;5026127;28;20064;-64
2021/06/14 00:42:57;;;;;;;4.68;2.10;;;15.20;65.80;;;;;;5025478;28;20029;-68
2021/06/14 00:45:29;;;;;;;5.10;2.53;;;15.20;66.10;;;;;;5023255;28;20416;-68
2021/06/14 00:47:57;;;;;;;5.85;3.83;;;15.30;66.10;;;;;;5023541;28;20079;-65
2021/06/14 00:50:46;;;;;;;3.30;2.30;;;15.20;66.70;;;;;;5025293;28;20029;-67
2021/06/14 00:53:16;;;;;;;3.25;1.50;;;15.40;66.80;;;;;;5022451;28;20035;-67
2021/06/14 00:55:44;;;;;;;4.35;2.00;;;15.50;66.10;;;;;;5026459;28;20027;-68
2021/06/14 00:58:12;;;;;;;2.70;1.80;;;15.60;65.20;;;;;;5022283;28;20492;-68
2021/06/14 01:00:40;;;;;;;3.30;1.80;;;15.70;65.20;;;;;;5018114;28;20119;-74
2021/06/14 01:03:09;;;;;;;2.63;1.85;;;15.70;64.60;;;;;;5012948;28;20034;-63
2021/06/14 01:05:45;;;;;;;3.58;1.88;;;15.70;65.40;;;;;;5012904;28;20585;-73
2021/06/14 01:08:12;;;;;;;4.70;2.35;;;15.70;65.60;;;;;;5037312;28;20033;-72
2021/06/14 01:10:41;;;;;;;5.53;1.90;;;15.70;66.40;;;;;;5014645;28;20025;-68
2021/06/14 01:13:39;;;;;;;4.57;1.85;;;15.70;66.90;;;;;;5013712;28;20068;-64
2021/06/14 01:16:22;;;;;;;2.50;1.83;;;15.90;67.10;;;;;;5013394;28;20061;-75
2021/06/14 01:19:10;;;;;;;2.42;1.80;;;16.10;67.00;;;;;;5014400;28;20083;-68
2021/06/14 01:21:54;;;;;;;3.92;2.22;;;16.30;67.00;;;;;;5014173;28;20107;-68
2021/06/14 01:24:40;;;;;;;3.15;1.92;;;16.50;66.10;;;;;;5011625;28;20144;-69
2021/06/14 01:27:31;;;;;;;2.92;1.95;;;16.60;65.10;;;;;;5010026;28;20488;-69
2021/06/14 01:29:59;;;;;;;1.92;1.75;;;16.60;65.30;;;;;;5012181;28;20511;-69
2021/06/14 01:32:27;;;;;;;3.40;1.50;;;16.70;65.40;;;;;;5010316;28;20156;-68
2021/06/14 01:34:54;;;;;;;3.38;1.70;;;16.80;65.70;;;;;;5013705;28;20022;-68
2021/06/14 01:37:21;;;;;;;2.47;1.60;;;16.90;64.70;;;;;;5011756;28;20026;-65
2021/06/14 01:39:50;;;;;;;1.73;1.40;;;17.00;65.10;;;;;;5013201;28;20029;-70
2021/06/14 01:42:18;;;;;;;1.30;1.10;;;17.20;66.00;;;;;;5012039;28;20485;-67
2021/06/14 01:44:46;;;;;;;1.60;1.08;;;17.20;63.80;;;;;;5014480;28;20060;-67
2021/06/14 01:47:15;;;;;;;6.40;1.30;;;17.20;65.00;;;;;;5013406;28;20726;-76
2021/06/14 01:49:43;;;;;;;1.92;1.00;;;17.40;63.90;;;;;;5012938;28;20028;-66
2021/06/14 01:52:27;;;;;;;2.72;1.22;;;17.40;64.20;;;;;;4871838;28;10001010;-66
2021/06/14 01:54:56;;;;;;;1.52;0.98;;;17.40;65.00;;;;;;5016769;28;20240;-69
2021/06/14 01:57:25;;;;;;;1.85;1.20;;;17.50;64.70;;;;;;5016057;28;20041;-78
2021/06/14 01:59:53;;;;;;;1.92;1.25;;;17.60;65.00;;;;;;5020683;28;20025;-71
2021/06/14 02:02:21;;;;;;;2.05;1.20;;;17.70;64.50;;;;;;5020773;28;20571;-76
2021/06/14 02:04:51;;;;;;;3.85;1.40;;;17.90;64.00;;;;;;5024786;28;20041;-75
2021/06/14 02:07:20;;;;;;;1.60;1.15;;;17.90;63.10;;;;;;5015691;28;20075;-68
2021/06/14 02:09:48;;;;;;;1.77;1.30;;;18.00;63.50;;;;;;5025246;28;20061;-67
2021/06/14 02:12:16;;;;;;;1.77;1.10;;;18.00;64.00;;;;;;5024354;28;20075;-75
2021/06/14 02:14:44;;;;;;;1.45;1.17;;;18.10;64.00;;;;;;5025366;28;20025;-71
2021/06/14 02:17:19;;;;;;;1.48;1.10;;;18.10;63.80;;;;;;5024769;28;20036;-73
2021/06/14 02:19:49;;;;;;;4.05;2.53;;;18.00;63.70;;;;;;5013215;28;20058;-69
2021/06/14 02:22:17;;;;;;;2.80;2.00;;;17.80;64.00;;;;;;5009402;28;20136;-73
2021/06/14 02:24:45;;;;;;;2.42;1.48;;;17.70;65.00;;;;;;5012703;28;20025;-67
2021/06/14 02:27:14;;;;;;;2.40;1.20;;;17.60;65.60;;;;;;5021654;28;20030;-67
2021/06/14 02:29:41;;;;;;;3.25;1.27;;;17.70;65.40;;;;;;5022373;28;20553;-68
2021/06/14 02:32:09;;;;;;;3.33;1.25;;;17.90;66.10;;;;;;5021843;28;20369;-67
2021/06/14 02:34:37;;;;;;;2.03;1.02;;;18.00;64.80;;;;;;5017804;28;20064;-73
2021/06/14 02:37:06;;;;;;;2.17;1.60;;;18.20;64.80;;;;;;5020780;28;20551;-68
2021/06/14 02:39:34;;;;;;;1.45;1.08;;;18.40;63.30;;;;;;5022279;28;20037;-69
2021/06/14 02:42:03;;;;;;;3.30;1.23;;;18.50;64.20;;;;;;5017523;28;20029;-67
2021/06/14 02:44:30;;;;;;;1.85;1.17;;;19.10;63.40;;;;;;5020737;28;20485;-69
2021/06/14 02:47:06;;;;;;;1.48;1.17;;;19.40;61.40;;;;;;5024154;28;20033;-74
2021/06/14 02:49:34;;;;;;;1.20;1.10;;;19.50;61.10;;;;;;5012269;28;20071;-72
2021/06/14 02:52:03;;;;;;;1.23;0.82;;;19.50;61.30;;;;;;5009791;28;20105;-76
2021/06/14 02:54:43;;;;;;;1.75;1.10;;;19.60;60.00;;;;;;5013456;28;20026;-71
2021/06/14 02:57:12;;;;;;;1.77;1.20;;;19.50;60.30;;;;;;5019469;28;20022;-69
2021/06/14 02:59:41;;;;;;;1.23;0.90;;;19.60;61.50;;;;;;5012071;28;20444;-73
2021/06/14 03:02:08;;;;;;;1.67;1.10;;;19.70;60.70;;;;;;5019017;28;20066;-67
2021/06/14 03:04:36;;;;;;;1.98;0.90;;;19.70;61.10;;;;;;5022133;28;20053;-76
2021/06/14 03:07:03;;;;;;;2.10;0.90;;;19.80;60.70;;;;;;5026108;28;20037;-68
2021/06/14 03:09:33;;;;;;;2.05;0.90;;;19.80;60.50;;;;;;5022227;28;20037;-73
2021/06/14 03:12:01;;;;;;;1.83;1.23;;;19.80;60.20;;;;;;5014392;28;20065;-76
2021/06/14 03:14:29;;;;;;;1.45;0.80;;;19.90;60.40;;;;;;5023922;28;20143;-73
2021/06/14 03:16:57;;;;;;;1.92;1.00;;;20.00;59.40;;;;;;5019318;28;20112;-72
2021/06/14 03:19:26;;;;;;;1.27;1.00;;;20.00;60.00;;;;;;5027505;28;20156;-72
2021/06/14 03:21:53;;;;;;;1.20;0.73;;;20.00;59.20;;;;;;5022741;28;20028;-71
2021/06/14 03:24:20;;;;;;;1.30;0.90;;;20.00;58.60;;;;;;5013486;28;20079;-74
2021/06/14 03:26:48;;;;;;;0.82;0.82;;;19.80;60.30;;;;;;5011153;28;20610;-73
2021/06/14 03:29:24;;;;;;;3.85;1.10;;;19.80;59.50;;;;;;5014874;28;20559;-72
2021/06/14 03:31:52;;;;;;;1.67;1.13;;;19.90;59.60;;;;;;5013022;28;20083;-73
2021/06/14 03:34:21;;;;;;;1.83;1.27;;;20.00;60.70;;;;;;5013284;28;20018;-73
2021/06/14 03:36:49;;;;;;;1.52;1.10;;;20.10;60.30;;;;;;5013933;28;20535;-70
2021/06/14 03:39:17;;;;;;;1.48;1.10;;;20.10;59.40;;;;;;5015687;28;20029;-71
2021/06/14 03:41:48;;;;;;;1.58;1.05;;;20.20;59.00;;;;;;5015056;28;20040;-70
2021/06/14 03:44:20;;;;;;;3.83;1.13;;;20.10;59.10;;;;;;5019324;28;20025;-71
2021/06/14 03:46:48;;;;;;;1.10;1.00;;;20.10;59.80;;;;;;5016749;28;20049;-74
2021/06/14 03:49:16;;;;;;;3.10;1.30;;;20.10;59.20;;;;;;5017062;28;20030;-73
2021/06/14 03:51:44;;;;;;;2.40;2.15;;;20.10;59.60;;;;;;5014751;28;20038;-75
2021/06/14 03:54:11;;;;;;;2.72;1.75;;;20.10;60.20;;;;;;5012492;28;20854;-75
2021/06/14 03:56:38;;;;;;;2.28;1.30;;;20.00;60.40;;;;;;5016053;28;20109;-71
2021/06/14 03:59:05;;;;;;;1.40;1.30;;;19.80;60.30;;;;;;5011816;28;20021;-68
2021/06/14 04:01:34;;;;;;;3.22;1.40;;;19.80;60.60;;;;;;5016053;28;20061;-70
2021/06/14 04:04:16;;;;;;;1.58;1.33;;;19.70;61.10;;;;;;5016082;28;20051;-70
2021/06/14 04:06:43;;;;;;;1.40;1.13;;;19.50;60.70;;;;;;5016603;28;20043;-70
2021/06/14 04:09:10;;;;;;;1.92;1.17;;;19.50;62.10;;;;;;5015767;28;20103;-74
2021/06/14 04:11:37;;;;;;;6.15;3.67;;;19.50;60.70;;;;;;5013275;28;20034;-72
2021/06/14 04:14:04;;;;;;;7.80;5.97;;;19.40;61.00;;;;;;5011673;28;20029;-68
2021/06/14 04:16:31;;;;;;;4.72;2.63;;;19.50;61.50;;;;;;5012771;28;20033;-69
2021/06/14 04:18:58;;;;;;;1.83;1.40;;;19.80;60.40;;;;;;5016926;28;20101;-74
2021/06/14 04:21:25;;;;;;;2.42;1.20;;;19.80;60.20;;;;;;5013391;28;20034;-66
2021/06/14 04:23:52;;;;;;;1.92;1.35;;;19.70;60.50;;;;;;5012867;28;20108;-67
2021/06/14 04:26:19;;;;;;;1.42;1.20;;;19.80;61.30;;;;;;5012180;28;20025;-69
2021/06/14 04:28:46;;;;;;;2.95;1.50;;;19.60;61.60;;;;;;5011241;28;20065;-66
2021/06/14 04:31:13;;;;;;;1.92;1.30;;;19.50;61.80;;;;;;4662217;28;10000419;-69
2021/06/14 04:33:40;;;;;;;1.90;1.52;;;19.40;62.20;;;;;;5015144;28;20024;-69
2021/06/14 04:36:07;;;;;;;2.72;1.50;;;19.40;62.70;;;;;;5009294;28;20136;-69
2021/06/14 04:38:34;;;;;;;1.50;1.40;;;19.30;62.00;;;;;;5011363;28;20662;-69
2021/06/14 04:41:02;;;;;;;2.17;1.45;;;19.60;61.80;;;;;;5006125;28;20030;-67
2021/06/14 04:43:29;;;;;;;1.63;1.20;;;19.90;61.40;;;;;;5031946;28;20692;-68
2021/06/14 04:45:56;;;;;;;2.38;1.13;;;20.00;60.50;;;;;;5019872;28;20030;-70
2021/06/14 04:48:23;;;;;;;1.60;1.10;;;19.80;60.40;;;;;;5013843;28;20052;-73
2021/06/14 04:50:50;;;;;;;4.40;2.63;;;19.50;62.30;;;;;;5023717;28;20095;-67
2021/06/14 04:53:18;;;;;;;4.53;1.60;;;19.40;62.20;;;;;;5022875;28;20028;-73
2021/06/14 04:55:45;;;;;;;2.47;1.60;;;19.40;62.70;;;;;;5016973;28;20104;-66
2021/06/14 04:58:12;;;;;;;2.95;1.50;;;19.30;62.80;;;;;;5016311;28;20028;-66
2021/06/14 05:00:39;;;;;;;1.42;1.17;;;19.30;63.80;;;;;;5021116;28;20096;-69
2021/06/14 05:03:06;;;;;;;1.20;1.10;;;19.10;63.80;;;;;;5020779;28;20038;-71
2021/06/14 05:05:33;;;;;;;2.67;1.35;;;19.00;65.00;;;;;;5017457;28;20559;-70
2021/06/14 05:08:00;;;;;;;1.63;1.15;;;18.80;64.90;;;;;;5016227;28;20038;-67
2021/06/14 05:10:27;;;;;;;2.00;1.20;;;18.70;64.90;;;;;;5024193;28;20033;-72
2021/06/14 05:12:54;;;;;;;3.75;1.98;;;18.70;65.90;;;;;;5023475;28;20483;-70
2021/06/14 05:15:21;;;;;;;2.65;1.30;;;18.70;64.90;;;;;;5023543;28;20044;-70
2021/06/14 05:17:49;;;;;;;1.48;1.15;;;18.60;65.10;;;;;;5009183;28;20033;-69
2021/06/14 05:20:17;;;;;;;1.70;1.17;;;18.60;65.50;;;;;;5017601;28;20040;-66
2021/06/14 05:22:44;;;;;;;3.92;1.30;;;18.70;65.30;;;;;;5022925;28;20028;-66
2021/06/14 05:25:15;;;;;;;3.63;1.33;;;18.90;64.40;;;;;;5023311;28;20026;-65
2021/06/14 05:27:42;;;;;;;2.05;1.10;;;18.90;64.60;;;;;;5018548;28;20839;-69
2021/06/14 05:30:10;;;;;;;1.45;1.30;;;19.20;63.70;;;;;;5018799;28;20030;-71
2021/06/14 05:32:38;;;;;;;2.28;1.50;;;19.70;62.60;;;;;;5020762;28;20116;-70
2021/06/14 05:35:07;;;;;;;1.67;1.40;;;19.70;61.30;;;;;;5022380;28;20134;-69
2021/06/14 05:37:34;;;;;;;2.47;1.80;;;19.70;62.40;;;;;;5033602;28;20384;-68
2021/06/14 05:40:01;;;;;;;1.30;1.10;;;19.70;61.70;;;;;;5012058;28;20472;-68
2021/06/14 05:42:28;;;;;;;2.70;1.77;;;20.00;61.50;;;;;;5015155;28;20029;-68
2021/06/14 05:44:55;;;;;;;2.55;1.73;;;20.30;60.00;;;;;;5015289;28;20022;-67
2021/06/14 05:47:23;;;;;;;1.92;1.27;;;20.50;58.70;;;;;;5023189;28;20061;-70
2021/06/14 05:49:50;;;;;;;2.33;1.42;;;20.50;58.00;;;;;;5017708;28;20026;-66
2021/06/14 05:52:17;;;;;;;1.25;1.02;;;19.90;60.00;;;;;;5022140;28;20026;-70
2021/06/14 05:54:44;;;;;;;1.55;1.00;;;19.40;61.20;;;;;;5022754;28;20532;-71
2021/06/14 05:57:11;;;;;;;1.85;1.30;;;18.90;62.10;;;;;;5019592;28;20028;-69
2021/06/14 05:59:38;;;;;;;3.50;1.70;;;18.60;64.60;;;;;;5022991;28;20604;-72
2021/06/14 06:02:06;;;;;;;1.45;1.20;;;18.30;66.00;;;;;;5018953;28;20033;-68
2021/06/14 06:04:34;;;;;;;1.90;1.38;;;18.00;67.10;;;;;;5017764;28;20662;-70
2021/06/14 06:07:01;;;;;;;2.90;1.70;;;17.80;68.10;;;;;;5022176;28;20033;-70
2021/06/14 06:09:28;;;;;;;3.47;1.75;;;17.70;68.80;;;;;;5022781;28;20109;-67
2021/06/14 06:11:55;;;;;;;5.35;2.20;;;17.70;68.70;;;;;;5022836;28;20671;-68
2021/06/14 06:14:23;;;;;;;2.38;1.60;;;17.60;69.40;;;;;;5013668;28;20879;-68
2021/06/14 06:16:50;;;;;;;2.47;1.60;;;17.50;69.60;;;;;;5021798;28;20078;-70
2021/06/14 06:19:18;;;;;;;2.15;1.70;;;17.30;70.50;;;;;;5020247;28;20069;-68
2021/06/14 06:21:45;;;;;;;2.67;1.50;;;17.10;71.50;;;;;;5020516;28;20026;-69
2021/06/14 06:24:12;;;;;;;4.70;1.85;;;16.90;72.30;;;;;;5022549;28;20057;-69
2021/06/14 06:26:39;;;;;;;2.13;1.40;;;16.70;73.70;;;;;;5022830;28;20036;-69
2021/06/14 06:29:06;;;;;;;2.95;1.40;;;16.60;73.80;;;;;;5018814;28;20029;-70
2021/06/14 06:31:33;;;;;;;2.38;1.63;;;16.40;74.90;;;;;;5017736;28;20472;-69
2021/06/14 06:34:00;;;;;;;3.08;1.55;;;16.30;75.80;;;;;;5019143;28;20026;-69
2021/06/14 06:36:28;;;;;;;2.55;1.17;;;16.20;76.30;;;;;;5022049;28;20025;-70
2021/06/14 06:38:55;;;;;;;2.67;1.55;;;16.20;77.40;;;;;;5024281;28;20021;-68
2021/06/14 06:41:22;;;;;;;3.92;1.60;;;16.10;76.80;;;;;;5025812;28;20733;-71
2021/06/14 06:43:50;;;;;;;2.25;1.50;;;16.10;77.40;;;;;;5018730;28;20018;-70
2021/06/14 06:46:17;;;;;;;2.28;1.67;;;16.00;77.80;;;;;;5022968;28;20517;-68
2021/06/14 06:48:44;;;;;;;3.55;1.50;;;16.00;78.20;;;;;;5024682;28;20022;-69
2021/06/14 06:51:11;;;;;;;3.95;2.63;;;15.90;79.00;;;;;;5026242;28;20491;-68
2021/06/14 06:53:38;;;;;;;6.95;5.22;;;15.80;79.40;;;;;;5025187;28;20731;-69
2021/06/14 06:56:05;;;;;;;11.85;10.55;;;15.80;79.40;;;;;;5021301;28;20861;-68
2021/06/14 06:58:32;;;;;;;18.40;15.82;;;15.80;79.50;;;;;;5021132;28;20033;-68
2021/06/14 07:00:59;;;;;;;12.43;9.43;;;15.60;79.60;;;;;;5020409;28;20755;-73
2021/06/14 07:03:27;;;;;;;7.93;4.63;;;15.50;80.20;;;;;;5019456;28;20534;-68
2021/06/14 07:05:54;;;;;;;4.75;4.15;;;15.40;80.60;;;;;;5041668;22;20885;-66
2021/06/14 07:08:21;;;;;;;4.95;2.80;;;15.30;81.00;;;;;;5040488;28;20060;-71
2021/06/14 07:10:49;;;;;;;4.63;3.67;;;15.20;81.70;;;;;;5046705;28;20025;-65
2021/06/14 07:13:16;;;;;;;3.20;2.15;;;15.20;81.90;;;;;;5038008;28;20041;-72
2021/06/14 07:15:44;;;;;;;3.60;2.00;;;15.10;82.60;;;;;;5047201;28;20025;-73
2021/06/14 07:18:11;;;;;;;2.80;1.90;;;15.00;83.40;;;;;;5047917;28;20025;-67
2021/06/14 07:20:38;;;;;;;2.58;1.90;;;15.00;84.10;;;;;;5025913;28;20067;-66
2021/06/14 07:23:05;;;;;;;4.20;2.92;;;14.90;84.40;;;;;;5030358;28;20029;-67
2021/06/14 07:25:32;;;;;;;8.23;4.95;;;14.80;84.50;;;;;;5038835;28;20075;-67
2021/06/14 07:27:59;;;;;;;6.03;2.72;;;14.60;85.70;;;;;;5045089;28;20467;-68
2021/06/14 07:30:26;;;;;;;4.28;3.03;;;14.60;85.90;;;;;;5043647;28;20652;-68
2021/06/14 07:32:53;;;;;;;2.60;2.03;;;14.40;86.40;;;;;;5037638;28;20025;-69
2021/06/14 07:35:20;;;;;;;3.50;2.00;;;14.30;87.00;;;;;;5042080;28;20021;-66
2021/06/14 07:37:46;;;;;;;5.45;2.60;;;14.20;87.70;;;;;;5033414;28;20077;-74
2021/06/14 07:40:14;;;;;;;3.20;2.13;;;14.20;87.80;;;;;;5040731;28;20527;-70
2021/06/14 07:42:41;;;;;;;4.32;2.25;;;14.10;87.60;;;;;;5039195;28;20487;-71
2021/06/14 07:45:09;;;;;;;4.25;2.63;;;14.00;88.20;;;;;;5043223;28;20037;-67
2021/06/14 07:47:36;;;;;;;4.25;2.22;;;13.90;89.00;;;;;;5043963;28;20036;-67
2021/06/14 07:50:04;;;;;;;6.18;2.90;;;13.90;88.70;;;;;;5045363;28;20021;-68
2021/06/14 07:52:31;;;;;;;5.60;3.28;;;13.90;88.40;;;;;;5044317;28;20553;-68
2021/06/14 07:54:58;;;;;;;3.30;2.58;;;13.90;88.80;;;;;;5047047;28;20507;-70
2021/06/14 07:57:26;;;;;;;3.17;2.17;;;13.90;88.70;;;;;;5046782;28;20036;-70
2021/06/14 07:59:53;;;;;;;3.15;2.42;;;13.90;88.70;;;;;;5040121;28;20128;-71
2021/06/14 08:02:19;;;;;;;2.90;2.13;;;13.80;89.10;;;;;;5043940;28;20075;-69
2021/06/14 08:04:46;;;;;;;5.35;4.85;;;13.80;89.10;;;;;;5045138;28;20048;-69
2021/06/14 08:07:13;;;;;;;3.72;2.70;;;13.70;88.80;;;;;;5046597;28;20033;-69
2021/06/14 08:09:41;;;;;;;5.53;3.97;;;13.70;89.50;;;;;;5046628;28;20029;-70
2021/06/14 08:12:08;;;;;;;3.28;2.10;;;13.60;89.70;;;;;;5041443;28;20059;-68
2021/06/14 08:14:35;;;;;;;3.88;2.78;;;13.50;89.90;;;;;;5030295;28;20460;-67
2021/06/14 08:17:03;;;;;;;11.65;7.50;;;13.40;90.30;;;;;;5046662;28;20027;-72
2021/06/14 08:19:44;;;;;;;5.50;3.58;;;13.30;90.30;;;;;;5046117;28;20071;-68
2021/06/14 08:27:26;;;;;;;2.78;1.83;;;13.10;90.90;;;;;;5046000;28;20039;-69
2021/06/14 08:29:53;;;;;;;4.95;3.30;;;13.00;91.00;;;;;;4343170;28;10000710;-67
2021/06/14 08:32:19;;;;;;;5.72;2.45;;;12.90;91.20;;;;;;5035640;28;20087;-64
2021/06/14 08:34:46;;;;;;;3.92;2.53;;;12.80;91.30;;;;;;5041107;28;20028;-67
2021/06/14 08:37:13;;;;;;;3.85;2.60;;;12.70;91.50;;;;;;5038994;28;20021;-68
2021/06/14 08:39:40;;;;;;;7.43;6.63;;;12.60;91.70;;;;;;5040745;28;20021;-68
2021/06/14 08:42:07;;;;;;;8.77;6.78;;;12.60;91.90;;;;;;5036934;28;20734;-69
2021/06/14 08:44:36;;;;;;;16.85;12.55;;;12.50;92.00;;;;;;5043004;28;20040;-66
2021/06/14 08:47:03;;;;;;;11.05;9.50;;;12.50;92.20;;;;;;5042915;28;20520;-66
2021/06/14 08:49:32;;;;;;;10.85;9.48;;;12.50;92.50;;;;;;5033234;28;20033;-66
2021/06/14 08:52:00;;;;;;;3.88;3.17;;;12.40;92.50;;;;;;5041775;28;20455;-67
2021/06/14 08:54:28;;;;;;;3.88;2.88;;;12.30;92.40;;;;;;5036678;28;20021;-67
2021/06/14 08:56:55;;;;;;;4.90;2.75;;;12.40;92.70;;;;;;5041920;28;20812;-69
2021/06/14 08:59:23;;;;;;;3.15;2.63;;;12.50;92.80;;;;;;5042038;28;20021;-67
2021/06/14 09:01:50;;;;;;;4.20;2.78;;;12.60;92.70;;;;;;5041693;28;20048;-68
2021/06/14 09:04:19;;;;;;;4.93;3.33;;;12.50;92.80;;;;;;5032805;28;20119;-66
2021/06/14 09:06:47;;;;;;;3.97;3.08;;;12.60;92.90;;;;;;5036918;28;20090;-67
2021/06/14 09:09:14;;;;;;;6.75;3.63;;;12.50;92.70;;;;;;5034246;28;20797;-68
2021/06/14 09:11:50;;;;;;;3.03;2.67;;;12.50;92.90;;;;;;5039875;28;20032;-66
2021/06/14 09:14:20;;;;;;;6.57;3.00;;;12.50;92.90;;;;;;5036306;28;20032;-69
2021/06/14 09:16:50;;;;;;;4.88;2.80;;;12.60;92.90;;;;;;5039655;28;20538;-69
2021/06/14 09:19:41;;;;;;;5.38;2.78;;;12.60;92.70;;;;;;5031832;28;20107;-71
2021/06/14 09:22:22;;;;;;;2.95;2.65;;;12.60;92.60;;;;;;5037206;28;20096;-67
2021/06/14 09:25:05;;;;;;;3.20;2.65;;;12.60;92.60;;;;;;5040907;28;20017;-68
2021/06/14 09:27:41;;;;;;;3.63;3.05;;;12.50;92.60;;;;;;5041095;28;20037;-69
2021/06/14 09:30:18;;;;;;;6.63;3.03;;;12.30;93.00;;;;;;5029466;28;20040;-68
2021/06/14 09:33:12;;;;;;;5.78;3.30;;;12.30;93.40;;;;;;5034877;28;20032;-68
2021/06/14 09:35:41;;;;;;;4.40;2.78;;;12.30;93.30;;;;;;5033665;28;20789;-66
2021/06/14 09:38:09;;;;;;;4.72;3.88;;;12.30;92.90;;;;;;5041302;28;20074;-67
2021/06/14 09:40:43;;;;;;;6.05;4.20;;;12.30;93.00;;;;;;5041335;28;20032;-68
2021/06/14 09:43:25;;;;;;;6.03;4.00;;;12.30;93.00;;;;;;5038435;28;20029;-67
2021/06/14 09:45:57;;;;;;;9.17;4.93;;;12.30;93.00;;;;;;5033433;28;20037;-67
2021/06/14 09:48:27;;;;;;;7.03;3.97;;;12.20;92.90;;;;;;5038463;28;20033;-67
2021/06/14 09:50:58;;;;;;;5.38;3.78;;;12.10;93.00;;;;;;5029427;28;20036;-69
2021/06/14 09:53:34;;;;;;;3.35;2.80;;;12.00;93.30;;;;;;5042769;28;20112;-69
2021/06/14 09:56:15;;;;;;;5.72;3.10;;;11.90;93.50;;;;;;5031833;28;20094;-69
2021/06/14 09:58:43;;;;;;;4.18;3.05;;;11.80;93.80;;;;;;5040156;28;20029;-69
2021/06/14 10:01:10;;;;;;;7.07;4.82;;;11.80;93.70;;;;;;5031322;28;20108;-69
2021/06/14 10:03:47;;;;;;;7.60;5.85;;;11.80;93.90;;;;;;5038457;28;20057;-68
2021/06/14 10:06:26;;;;;;;7.72;6.68;;;11.80;94.20;;;;;;5038545;28;20045;-67
2021/06/14 10:08:53;;;;;;;11.23;6.60;;;11.80;93.90;;;;;;5033294;28;20082;-70
2021/06/14 10:11:20;;;;;;;6.53;5.38;;;11.70;94.00;;;;;;5034710;28;20051;-70
2021/06/14 10:13:50;;;;;;;8.45;6.88;;;11.60;93.80;;;;;;5042148;28;20033;-67
2021/06/14 10:16:25;;;;;;;8.82;6.75;;;11.60;93.90;;;;;;5044662;28;20087;-67
2021/06/14 10:18:55;;;;;;;9.13;7.32;;;11.50;94.10;;;;;;5044359;28;20017;-68
2021/06/14 10:21:30;;;;;;;9.30;7.63;;;11.30;94.10;;;;;;5040921;28;20033;-66
2021/06/14 10:24:00;;;;;;;9.68;6.95;;;11.30;94.50;;;;;;5041347;28;20051;-70
2021/06/14 10:26:29;;;;;;;10.38;6.68;;;11.30;94.60;;;;;;5038864;28;20541;-66
2021/06/14 10:28:56;;;;;;;10.80;7.60;;;11.30;94.70;;;;;;5040132;28;20029;-69
2021/06/14 10:31:24;;;;;;;8.23;7.28;;;11.30;94.80;;;;;;5043291;28;20036;-70
2021/06/14 10:33:54;;;;;;;10.80;8.40;;;11.30;94.60;;;;;;5041752;28;20052;-68
2021/06/14 10:36:25;;;;;;;10.63;8.65;;;11.30;94.70;;;;;;5044100;28;20040;-70
2021/06/14 10:38:54;;;;;;;9.57;8.20;;;11.40;94.40;;;;;;5044076;28;20771;-67
2021/06/14 10:41:23;;;;;;;12.05;9.32;;;11.40;94.40;;;;;;5042744;28;20025;-69
2021/06/14 10:43:52;;;;;;;11.52;8.82;;;11.50;94.30;;;;;;5046251;28;20332;-68
2021/06/14 10:46:22;;;;;;;10.52;8.18;;;11.40;94.20;;;;;;5046329;28;20440;-68
2021/06/14 10:48:55;;;;;;;9.40;7.80;;;11.40;94.40;;;;;;5031561;28;20021;-67
2021/06/14 10:51:23;;;;;;;12.90;8.90;;;11.50;94.20;;;;;;5035627;28;20040;-69
2021/06/14 10:53:51;;;;;;;10.43;8.18;;;11.50;94.20;;;;;;5035251;28;20132;-71
2021/06/14 10:56:24;;;;;;;9.50;8.32;;;11.40;94.00;;;;;;5038227;28;20032;-69
2021/06/14 10:59:02;;;;;;;9.90;7.93;;;11.40;94.20;;;;;;5043677;28;20222;-68
2021/06/14 11:01:34;;;;;;;7.75;6.40;;;11.30;94.20;;;;;;5039101;28;20050;-72
2021/06/14 11:04:02;;;;;;;5.53;3.97;;;11.40;94.00;;;;;;5040785;28;20593;-68
2021/06/14 11:06:37;;;;;;;6.47;4.97;;;11.40;93.60;;;;;;5046463;28;20124;-66
2021/06/14 11:09:13;;;;;;;5.28;4.47;;;11.50;93.50;;;;;;5044514;28;20565;-74
2021/06/14 11:11:59;;;;;;;6.72;4.70;;;11.50;93.20;;;;;;5040426;28;20110;-70
2021/06/14 11:14:42;;;;;;;5.32;4.10;;;11.40;93.60;;;;;;5039049;28;20017;-72
2021/06/14 11:17:32;;;;;;;6.93;4.55;;;11.40;93.60;;;;;;5046088;28;20013;-71
2021/06/14 11:20:02;;;;;;;4.53;3.78;;;11.40;93.40;;;;;;5046536;28;20017;-72
2021/06/14 11:22:48;;;;;;;4.70;3.22;;;11.50;93.30;;;;;;5046418;28;20867;-70
2021/06/14 11:25:29;;;;;;;4.00;3.15;;;11.40;93.20;;;;;;5039409;28;20037;-69
2021/06/14 11:27:58;;;;;;;6.28;5.10;;;11.40;93.10;;;;;;5045308;28;20029;-71
2021/06/14 11:30:31;;;;;;;3.60;3.25;;;11.40;93.20;;;;;;5041847;28;20669;-69
2021/06/14 11:32:59;;;;;;;6.55;4.72;;;11.30;93.20;;;;;;5037599;28;20078;-70
2021/06/14 11:35:28;;;;;;;5.45;3.75;;;11.30;93.40;;;;;;5039552;28;20029;-73
2021/06/14 11:37:59;;;;;;;3.92;3.08;;;11.30;93.30;;;;;;5032024;28;20036;-69
2021/06/14 11:40:34;;;;;;;2.80;2.28;;;11.30;93.20;;;;;;5021351;28;20446;-71
2021/06/14 11:43:11;;;;;;;3.72;3.08;;;11.30;93.20;;;;;;5041946;28;20025;-68
2021/06/14 11:45:44;;;;;;;3.17;2.67;;;11.30;93.20;;;;;;5035689;28;20051;-69
2021/06/14 11:48:31;;;;;;;2.85;2.55;;;11.30;93.10;;;;;;5041660;28;20033;-71
2021/06/14 11:51:06;;;;;;;2.67;2.00;;;11.30;93.30;;;;;;5039528;28;20079;-72
2021/06/14 11:53:57;;;;;;;2.20;2.00;;;11.30;92.90;;;;;;5027294;28;20052;-69
2021/06/14 11:56:26;;;;;;;5.22;2.72;;;11.30;92.90;;;;;;5040293;28;20025;-69
2021/06/14 11:58:58;;;;;;;4.22;2.33;;;11.30;93.10;;;;;;5043940;28;20437;-69
2021/06/14 12:01:25;;;;;;;5.38;2.30;;;11.20;93.20;;;;;;5045494;28;20025;-71
2021/06/14 12:03:56;;;;;;;4.00;1.80;;;11.20;93.30;;;;;;5041550;28;20094;-69
2021/06/14 12:06:24;;;;;;;3.00;2.13;;;11.20;93.30;;;;;;5016618;28;20046;-68
2021/06/14 12:08:51;;;;;;;5.38;2.22;;;11.20;93.10;;;;;;5023501;28;20029;-71
2021/06/14 12:11:25;;;;;;;1.73;1.52;;;11.30;92.80;;;;;;5040716;28;20195;-68
2021/06/14 12:13:51;;;;;;;2.33;1.63;;;11.40;92.70;;;;;;5044307;28;20123;-68
2021/06/14 12:16:24;;;;;;;4.88;1.98;;;11.40;92.80;;;;;;5041438;28;20136;-68
2021/06/14 12:19:00;;;;;;;2.45;1.58;;;11.40;92.90;;;;;;5041306;28;20029;-71
2021/06/14 12:21:27;;;;;;;1.88;1.42;;;11.40;92.90;;;;;;5043420;28;20031;-70
2021/06/14 12:23:54;;;;;;;2.65;1.73;;;11.40;92.60;;;;;;5046909;28;20052;-70
2021/06/14 12:26:21;;;;;;;1.52;1.27;;;11.40;92.50;;;;;;5044479;28;20024;-68
2021/06/14 12:28:48;;;;;;;1.58;1.20;;;11.40;92.60;;;;;;5043758;28;20112;-69
2021/06/14 12:31:15;;;;;;;1.30;1.10;;;11.40;92.70;;;;;;5047370;28;20190;-70
2021/06/14 12:33:44;;;;;;;1.27;1.17;;;11.40;92.50;;;;;;5023145;28;20040;-70
2021/06/14 12:36:12;;;;;;;2.38;1.30;;;11.40;92.70;;;;;;5044563;28;20033;-71
2021/06/14 12:38:48;;;;;;;1.35;1.25;;;11.40;92.40;;;;;;5022351;28;20041;-71
2021/06/14 12:41:17;;;;;;;3.10;1.40;;;11.40;92.40;;;;;;5044116;28;20107;-69
2021/06/14 12:43:44;;;;;;;1.83;1.30;;;11.40;92.60;;;;;;5043471;28;20108;-69
2021/06/14 12:46:14;;;;;;;1.73;1.02;;;11.40;92.50;;;;;;5044171;28;20663;-71
2021/06/14 12:48:44;;;;;;;1.98;1.20;;;11.40;92.40;;;;;;5036716;28;20029;-71
2021/06/14 12:51:11;;;;;;;2.78;1.67;;;11.40;92.70;;;;;;5037899;28;20602;-71
2021/06/14 12:53:38;;;;;;;1.77;1.48;;;11.30;92.90;;;;;;5042918;28;20399;-70
2021/06/14 12:56:06;;;;;;;2.63;1.10;;;11.40;92.50;;;;;;5047347;28;20445;-68
2021/06/14 12:58:36;;;;;;;1.88;1.33;;;11.50;92.30;;;;;;5047181;28;20025;-70
2021/06/14 13:01:08;;;;;;;2.33;1.58;;;11.40;92.60;;;;;;5039006;28;20021;-69
2021/06/14 13:03:38;;;;;;;1.63;1.25;;;11.30;92.60;;;;;;5043709;28;20031;-68